Time;durP1;ratioP1;P1;durP2;ratioP2;P2;SDS_P1;SDS_P2;PMS_P1;PMS_P2;Temp;Humidity;BMP_temperature;BMP_pressure;BME280_temperature;BME280_humidity;BME280_pressure;Samples;Min_cycle;Max_cycle;Signal;HPM_P1;HPM_P2
2022/04/19 00:01:57;;;;;;;2.03;1.63;;;;;;;8.12;55.20;98295.09;5053602;28;20201;-56
2022/04/19 00:04:24;;;;;;;2.80;1.80;;;;;;;8.04;55.26;98296.75;5054054;28;20241;-56
2022/04/19 00:06:52;;;;;;;2.70;1.87;;;;;;;7.96;57.26;98290.50;5054115;28;20183;-57
2022/04/19 00:09:19;;;;;;;2.13;1.70;;;;;;;7.91;57.92;98284.94;5053967;28;20193;-56
2022/04/19 00:11:46;;;;;;;4.93;2.23;;;;;;;7.87;56.81;98287.94;5053289;28;20182;-56
2022/04/19 00:14:13;;;;;;;4.90;1.67;;;;;;;7.76;56.75;98276.75;5053942;28;20242;-56
2022/04/19 00:16:40;;;;;;;4.27;2.40;;;;;;;7.75;57.29;98279.50;5053857;28;20216;-56
2022/04/19 00:19:07;;;;;;;2.43;1.60;;;;;;;7.71;58.34;98278.94;5053884;28;20214;-56
2022/04/19 00:21:33;;;;;;;6.27;2.00;;;;;;;7.74;59.81;98288.25;5052961;28;20233;-56
2022/04/19 00:24:02;;;;;;;3.30;1.57;;;;;;;7.60;58.99;98286.91;5053725;28;20222;-56
2022/04/19 00:26:28;;;;;;;9.23;2.17;;;;;;;7.53;59.35;98281.47;5053768;28;20190;-56
2022/04/19 00:28:55;;;;;;;4.43;1.77;;;;;;;7.41;58.57;98286.00;5052505;28;20202;-56
2022/04/19 00:31:22;;;;;;;2.60;1.60;;;;;;;7.31;59.98;98286.00;5051600;28;20206;-56
2022/04/19 00:33:49;;;;;;;5.43;2.37;;;;;;;7.44;61.12;98277.91;5052239;28;20265;-56
2022/04/19 00:36:16;;;;;;;3.30;1.87;;;;;;;7.26;61.02;98280.41;5051223;28;20556;-56
2022/04/19 00:38:42;;;;;;;3.90;2.00;;;;;;;7.33;60.98;98272.91;5053579;28;20607;-56
2022/04/19 00:41:12;;;;;;;2.13;1.33;;;;;;;7.25;61.97;98278.75;5051662;28;20198;-56
2022/04/19 00:43:38;;;;;;;2.43;1.80;;;;;;;7.10;61.82;98275.78;5052115;28;20664;-56
2022/04/19 00:46:05;;;;;;;3.53;1.97;;;;;;;6.96;60.87;98278.78;5052144;28;20194;-56
2022/04/19 00:48:32;;;;;;;3.73;1.80;;;;;;;7.02;59.82;98266.06;5052090;28;20239;-56
2022/04/19 00:51:00;;;;;;;3.93;2.23;;;;;;;7.07;61.56;98268.28;5052610;28;20236;-56
2022/04/19 00:53:29;;;;;;;5.10;2.20;;;;;;;6.90;60.65;98268.00;5053277;28;20202;-56
2022/04/19 00:55:59;;;;;;;4.73;2.30;;;;;;;6.94;60.15;98271.97;5051926;28;20212;-56
2022/04/19 00:58:28;;;;;;;3.60;2.20;;;;;;;6.88;62.32;98269.91;5051951;28;20221;-56
2022/04/19 01:00:55;;;;;;;2.30;1.70;;;;;;;6.71;62.12;98262.78;5051271;28;20276;-56
2022/04/19 01:03:24;;;;;;;3.00;1.97;;;;;;;6.66;61.95;98260.59;5051411;28;20226;-56
2022/04/19 01:05:55;;;;;;;6.77;2.20;;;;;;;6.71;61.35;98260.19;5051768;28;20190;-56
2022/04/19 01:08:24;;;;;;;2.80;2.00;;;;;;;6.69;61.98;98254.31;5052975;28;20243;-56
2022/04/19 01:13:17;;;;;;;3.40;1.93;;;;;;;6.78;61.83;98253.50;5050874;28;20666;-56
2022/04/19 01:13:55;;;;;;;4.43;2.20;;;;;;;6.68;60.80;98256.09;5051194;28;20693;-56
2022/04/19 01:16:23;;;;;;;3.53;1.93;;;;;;;6.62;62.22;98251.47;5051423;28;20245;-56
2022/04/19 01:18:51;;;;;;;3.40;1.70;;;;;;;6.60;61.96;98248.97;5051503;28;20197;-56
2022/04/19 01:21:18;;;;;;;4.27;2.33;;;;;;;6.57;62.64;98248.44;5050719;28;20674;-56
2022/04/19 01:23:47;;;;;;;2.77;2.00;;;;;;;6.49;62.44;98244.75;5051662;28;20204;-56
2022/04/19 01:26:14;;;;;;;2.97;1.93;;;;;;;6.62;62.73;98243.69;5051200;28;20680;-56
2022/04/19 01:28:41;;;;;;;3.27;2.10;;;;;;;6.56;63.42;98252.00;5051390;28;20208;-55
2022/04/19 01:31:11;;;;;;;3.23;1.90;;;;;;;6.42;62.81;98238.47;5050369;28;20674;-56
2022/04/19 01:33:45;;;;;;;3.10;2.30;;;;;;;6.37;63.36;98239.78;5051125;28;20236;-56
2022/04/19 01:36:12;;;;;;;4.87;2.00;;;;;;;6.30;63.28;98235.19;5051062;28;20213;-55
2022/04/19 01:38:43;;;;;;;3.93;2.00;;;;;;;6.29;62.98;98240.47;5051040;28;20193;-56
2022/04/19 01:41:13;;;;;;;3.10;2.20;;;;;;;6.27;63.49;98245.81;5050263;28;20202;-56
2022/04/19 01:43:45;;;;;;;2.73;1.80;;;;;;;6.26;63.09;98244.16;5051059;28;20221;-56
2022/04/19 01:46:13;;;;;;;3.37;1.90;;;;;;;6.25;64.12;98236.50;5052315;28;20201;-56
2022/04/19 01:48:40;;;;;;;4.30;1.90;;;;;;;6.13;64.03;98241.78;5050842;28;20668;-56
2022/04/19 01:51:08;;;;;;;4.43;2.13;;;;;;;6.05;63.71;98242.47;5050078;28;20202;-56
2022/04/19 01:53:35;;;;;;;2.17;1.87;;;;;;;6.02;63.84;98245.31;5050777;28;20215;-56
2022/04/19 01:56:04;;;;;;;4.03;2.07;;;;;;;6.08;64.08;98238.78;5050786;28;20215;-56
2022/04/19 01:58:51;;;;;;;3.17;2.13;;;;;;;6.16;64.20;98235.53;5052200;28;20549;-56
2022/04/19 02:01:18;;;;;;;3.17;2.10;;;;;;;6.09;64.40;98237.81;5049929;28;20193;-56
2022/04/19 02:03:46;;;;;;;2.93;2.10;;;;;;;5.96;64.83;98238.03;5088114;22;20227;-55
2022/04/19 02:06:17;;;;;;;3.60;2.20;;;;;;;6.03;64.16;98231.41;5107968;28;20182;-55
2022/04/19 02:08:45;;;;;;;4.50;1.83;;;;;;;5.97;65.26;98229.31;5090798;28;20682;-55
2022/04/19 02:11:21;;;;;;;3.50;2.27;;;;;;;5.98;64.07;98227.53;5091504;28;20187;-55
2022/04/19 02:14:06;;;;;;;3.90;2.10;;;;;;;6.03;65.00;98230.56;5090822;28;20245;-55
2022/04/19 02:16:38;;;;;;;4.13;1.97;;;;;;;6.14;64.10;98227.09;5090756;28;20262;-55
2022/04/19 02:19:06;;;;;;;3.23;1.90;;;;;;;6.16;63.51;98225.19;5090944;28;20195;-55
2022/04/19 02:21:33;;;;;;;4.23;1.97;;;;;;;6.12;64.25;98221.22;5089954;28;20275;-54
2022/04/19 02:24:00;;;;;;;3.80;2.03;;;;;;;6.15;65.45;98226.13;5090678;28;20208;-55
2022/04/19 02:26:27;;;;;;;3.83;2.13;;;;;;;6.10;64.80;98218.72;5090716;28;20274;-55
2022/04/19 02:28:55;;;;;;;5.03;2.20;;;;;;;6.09;64.28;98218.88;5090739;28;20193;-55
2022/04/19 02:31:33;;;;;;;5.53;1.97;;;;;;;6.04;63.23;98216.66;5089930;28;20179;-55
2022/04/19 02:34:01;;;;;;;4.63;2.10;;;;;;;5.99;63.54;98208.44;5090552;28;20260;-55
2022/04/19 02:36:27;;;;;;;3.73;2.13;;;;;;;5.96;63.38;98204.34;5090525;28;20724;-55
2022/04/19 02:38:56;;;;;;;3.23;2.23;;;;;;;5.87;64.02;98208.53;5090613;28;20194;-55
2022/04/19 02:41:24;;;;;;;3.60;1.80;;;;;;;5.89;64.82;98213.59;5089748;28;20191;-55
2022/04/19 02:43:59;;;;;;;3.87;2.30;;;;;;;5.81;65.03;98206.50;5090384;28;20316;-54
2022/04/19 02:46:26;;;;;;;3.70;2.30;;;;;;;5.75;65.04;98207.81;5090453;28;20680;-55
2022/04/19 02:48:57;;;;;;;4.87;2.07;;;;;;;5.68;65.54;98211.06;5090475;28;20206;-54
2022/04/19 02:51:24;;;;;;;4.60;1.93;;;;;;;5.70;65.00;98211.78;5089645;28;20222;-55
2022/04/19 02:53:53;;;;;;;3.70;2.10;;;;;;;5.77;65.49;98212.88;5090399;28;20221;-54
2022/04/19 02:56:20;;;;;;;3.97;1.90;;;;;;;5.62;65.70;98212.41;5090362;28;20204;-54
2022/04/19 02:58:47;;;;;;;3.13;2.03;;;;;;;5.55;65.03;98212.09;5090379;28;20666;-55
2022/04/19 03:01:15;;;;;;;2.77;2.20;;;;;;;5.58;64.20;98211.84;5093498;28;20237;-55
2022/04/19 03:03:44;;;;;;;4.47;2.13;;;;;;;5.55;67.08;98212.09;5094155;28;20236;-55
2022/04/19 03:06:15;;;;;;;3.67;2.00;;;;;;;5.60;66.02;98211.72;5094300;28;20294;-55
2022/04/19 03:08:42;;;;;;;4.13;2.40;;;;;;;5.61;65.91;98205.59;5094247;28;20202;-55
2022/04/19 03:11:09;;;;;;;3.87;2.03;;;;;;;5.50;65.50;98209.09;5094455;28;20195;-55
2022/04/19 03:13:38;;;;;;;3.27;2.00;;;;;;;5.41;66.19;98207.25;5095409;28;20295;-55
2022/04/19 03:16:06;;;;;;;3.40;2.00;;;;;;;5.43;65.55;98200.19;5094000;28;20227;-54
2022/04/19 03:18:34;;;;;;;3.20;1.93;;;;;;;5.33;66.05;98205.31;5094027;28;20249;-56
2022/04/19 03:21:02;;;;;;;2.77;2.10;;;;;;;5.47;67.51;98211.94;5093179;28;20193;-55
2022/04/19 03:29:03;;;;;;;5.87;2.00;;;;;;;5.35;66.08;98202.59;5093904;28;20196;-55
2022/04/19 03:31:34;;;;;;;3.33;1.80;;;;;;;5.46;68.36;98202.53;5093037;28;20199;-55
2022/04/19 03:34:01;;;;;;;2.97;1.77;;;;;;;5.31;69.05;98209.78;5093550;28;20215;-55
2022/04/19 03:36:28;;;;;;;2.73;1.90;;;;;;;5.17;69.02;98214.34;5093662;28;20212;-55
2022/04/19 03:38:58;;;;;;;3.27;2.00;;;;;;;5.13;69.19;98215.56;5093703;28;20194;-55
2022/04/19 03:41:26;;;;;;;3.07;2.10;;;;;;;5.12;69.33;98208.75;5092849;28;20188;-55
2022/04/19 03:44:12;;;;;;;2.67;2.03;;;;;;;5.01;69.16;98212.19;5094843;28;20284;-55
2022/04/19 03:49:20;;;;;;;6.30;1.80;;;;;;;5.14;68.27;98201.69;5092663;28;20196;-54
2022/04/19 03:51:47;;;;;;;4.13;2.03;;;;;;;5.16;68.08;98207.53;5092683;28;20562;-54
2022/04/19 03:54:15;;;;;;;2.70;1.80;;;;;;;5.08;68.69;98202.19;5093285;28;20221;-54
2022/04/19 03:56:42;;;;;;;2.70;1.87;;;;;;;4.99;69.48;98202.94;5093309;28;20220;-55
2022/04/19 03:59:09;;;;;;;2.97;2.00;;;;;;;4.92;69.66;98200.00;5093166;28;20187;-54
2022/04/19 04:01:38;;;;;;;3.77;2.00;;;;;;;4.95;70.02;98199.75;5092382;28;20284;-55
2022/04/19 04:04:07;;;;;;;2.97;2.03;;;;;;;4.95;69.60;98198.94;5092975;28;20219;-55
2022/04/19 04:06:35;;;;;;;4.37;1.97;;;;;;;5.00;70.71;98202.78;5093016;28;20276;-55
2022/04/19 04:09:03;;;;;;;3.17;2.00;;;;;;;4.99;69.46;98195.16;5093105;28;20273;-55
2022/04/19 04:11:32;;;;;;;3.87;2.60;;;;;;;5.04;69.66;98205.97;5090762;28;20257;-54
2022/04/19 04:14:11;;;;;;;3.60;2.30;;;;;;;5.07;68.81;98203.13;5092899;28;20301;-55
2022/04/19 04:16:39;;;;;;;5.13;1.87;;;;;;;4.97;68.74;98202.25;5092882;28;20211;-55
2022/04/19 04:19:07;;;;;;;2.43;1.67;;;;;;;4.92;68.75;98206.97;5094206;28;20690;-54
2022/04/19 04:21:36;;;;;;;3.43;2.00;;;;;;;4.87;68.82;98209.91;5092017;28;20196;-55
2022/04/19 04:24:04;;;;;;;2.87;1.87;;;;;;;4.81;68.64;98213.00;5092576;28;20706;-55
2022/04/19 04:26:38;;;;;;;5.53;2.00;;;;;;;4.84;69.66;98211.00;5092829;28;20196;-55
2022/04/19 04:29:05;;;;;;;2.90;2.00;;;;;;;4.76;68.76;98220.31;5092644;28;20199;-54
2022/04/19 04:31:32;;;;;;;3.33;2.03;;;;;;;4.77;70.01;98214.22;5091881;28;20201;-55
2022/04/19 04:34:00;;;;;;;2.67;1.90;;;;;;;4.71;69.82;98218.94;5092542;28;20349;-55
2022/04/19 04:36:28;;;;;;;3.13;1.90;;;;;;;4.65;69.45;98211.66;5092475;28;20503;-55
2022/04/19 04:38:56;;;;;;;3.37;1.80;;;;;;;4.60;70.42;98218.97;5092456;28;20186;-55
2022/04/19 04:41:32;;;;;;;3.53;2.20;;;;;;;4.57;70.92;98226.97;5091656;28;20244;-55
2022/04/19 04:44:01;;;;;;;2.97;2.07;;;;;;;4.55;71.35;98232.25;5092289;28;20215;-55
2022/04/19 04:51:56;;;;;;;2.90;1.90;;;;;;;4.56;73.02;98220.16;5091467;28;20538;-55
2022/04/19 04:54:23;;;;;;;2.93;1.80;;;;;;;4.50;72.48;98226.63;5092108;28;20702;-55
2022/04/19 04:56:50;;;;;;;2.60;1.73;;;;;;;4.50;72.91;98230.97;5092095;28;20212;-55
2022/04/19 04:59:19;;;;;;;3.97;2.03;;;;;;;4.51;72.93;98228.25;5091944;28;20569;-55
2022/04/19 05:01:46;;;;;;;3.03;1.70;;;;;;;4.50;73.45;98225.81;5091207;28;20194;-55
2022/04/19 05:04:13;;;;;;;5.03;2.17;;;;;;;4.49;73.49;98232.72;5091774;28;20222;-55
2022/04/19 05:06:41;;;;;;;6.90;2.30;;;;;;;4.57;73.86;98235.53;5092104;28;20215;-55
2022/04/19 05:09:08;;;;;;;3.93;2.10;;;;;;;4.62;72.64;98240.34;5091913;28;20193;-55
2022/04/19 05:11:36;;;;;;;4.00;2.00;;;;;;;4.63;72.90;98236.81;5091034;28;20744;-54
2022/04/19 05:14:03;;;;;;;4.33;1.90;;;;;;;4.75;73.76;98236.78;5091563;28;20214;-55
2022/04/19 05:16:32;;;;;;;3.07;2.10;;;;;;;4.72;73.05;98233.50;5091763;28;20229;-55
2022/04/19 05:18:59;;;;;;;2.87;2.10;;;;;;;4.69;73.46;98238.09;5091800;28;20192;-55
2022/04/19 05:21:26;;;;;;;3.60;1.93;;;;;;;4.69;73.14;98241.50;5090790;28;20197;-55
2022/04/19 05:23:53;;;;;;;4.20;2.33;;;;;;;4.73;74.86;98242.91;5091331;28;20215;-55
2022/04/19 05:26:28;;;;;;;5.00;1.93;;;;;;;4.73;75.00;98242.91;5091447;28;20188;-55
2022/04/19 05:28:56;;;;;;;6.17;2.80;;;;;;;4.79;74.19;98243.31;5091481;28;20190;-55
2022/04/19 05:31:23;;;;;;;4.67;2.23;;;;;;;4.81;73.50;98236.25;5090639;28;20202;-55
2022/04/19 05:33:52;;;;;;;5.30;1.93;;;;;;;4.80;72.57;98243.22;5091401;28;20206;-55
2022/04/19 05:36:20;;;;;;;6.57;1.93;;;;;;;4.89;72.82;98246.81;5091343;28;20231;-55
2022/04/19 05:38:52;;;;;;;5.33;2.03;;;;;;;4.96;73.71;98247.97;5092565;28;20188;-55
2022/04/19 05:41:21;;;;;;;4.10;1.97;;;;;;;4.97;73.16;98241.03;5090423;28;20219;-55
2022/04/19 05:43:50;;;;;;;2.47;1.60;;;;;;;4.98;72.84;98247.84;5091233;28;20210;-55
2022/04/19 05:46:20;;;;;;;2.43;1.90;;;;;;;5.04;73.15;98244.75;5091507;28;20213;-55
2022/04/19 05:48:48;;;;;;;4.07;2.43;;;;;;;5.07;73.57;98254.03;5091192;28;20187;-55
2022/04/19 05:51:16;;;;;;;3.07;2.00;;;;;;;5.20;72.92;98244.31;5090326;28;20554;-55
2022/04/19 05:53:43;;;;;;;3.27;2.10;;;;;;;5.29;73.54;98250.53;5090886;28;20223;-55
2022/04/19 05:56:12;;;;;;;4.90;1.63;;;;;;;5.36;74.16;98249.03;5091013;28;20711;-55
2022/04/19 05:58:39;;;;;;;3.87;1.73;;;;;;;5.40;73.88;98250.44;5091093;28;20252;-55
2022/04/19 06:01:06;;;;;;;4.13;1.98;;;;;;;5.44;74.71;98253.59;5090078;28;20423;-52
2022/04/19 06:06:22;;;;;;;3.43;1.80;;;;;;;5.47;73.94;98254.16;5090911;28;20218;-48
2022/04/19 06:08:53;;;;;;;2.83;1.90;;;;;;;5.52;73.76;98253.78;5090996;28;20285;-51
2022/04/19 06:11:22;;;;;;;2.73;1.93;;;;;;;5.57;73.13;98249.06;5090110;28;20224;-49
2022/04/19 06:13:49;;;;;;;2.57;1.77;;;;;;;5.65;72.75;98245.81;5090804;28;20264;-51
2022/04/19 06:16:18;;;;;;;3.43;2.03;;;;;;;5.75;72.96;98258.81;5090763;28;20667;-50
2022/04/19 06:18:49;;;;;;;4.37;2.07;;;;;;;5.82;72.48;98251.34;5090729;28;20600;-52
2022/04/19 06:21:19;;;;;;;3.73;1.93;;;;;;;5.87;73.24;98256.94;5089979;28;20195;-50
2022/04/19 06:23:47;;;;;;;5.40;2.10;;;;;;;5.91;72.13;98256.53;5090685;28;20212;-50
2022/04/19 06:26:15;;;;;;;3.10;2.10;;;;;;;5.97;72.79;98255.22;5090720;28;20575;-50
2022/04/19 06:28:43;;;;;;;3.37;1.97;;;;;;;6.06;72.51;98251.03;5090694;28;20192;-52
2022/04/19 06:31:34;;;;;;;2.97;1.87;;;;;;;6.15;71.99;98255.44;5089585;28;20387;-49
2022/04/19 06:34:22;;;;;;;2.73;1.70;;;;;;;6.26;73.13;98262.31;5091847;28;20208;-49
2022/04/19 06:36:56;;;;;;;3.63;1.57;;;;;;;6.39;71.75;98256.88;5094836;28;20699;-48
2022/04/19 06:39:25;;;;;;;6.90;3.00;;;;;;;6.54;72.55;98259.09;5094596;28;20538;-50
2022/04/19 06:41:53;;;;;;;3.97;2.53;;;;;;;6.78;70.17;98272.50;5094118;28;20283;-51
2022/04/19 06:44:21;;;;;;;4.40;2.57;;;;;;;7.08;68.72;98273.31;5094695;28;20214;-49
2022/04/19 06:46:49;;;;;;;7.00;4.17;;;;;;;7.36;70.23;98275.22;5094682;28;20188;-49
2022/04/19 06:49:17;;;;;;;6.53;4.30;;;;;;;7.51;69.89;98285.97;5094643;28;20195;-48
2022/04/19 06:51:44;;;;;;;9.40;5.47;;;;;;;7.70;69.73;98279.91;5093831;28;20199;-48
2022/04/19 06:54:13;;;;;;;8.93;5.40;;;;;;;7.81;68.15;98278.94;5094390;28;20211;-48
2022/04/19 06:56:45;;;;;;;7.07;5.43;;;;;;;7.92;68.02;98270.97;5094450;28;20664;-49
2022/04/19 06:59:12;;;;;;;8.87;6.33;;;;;;;8.00;67.59;98267.66;5094526;28;20178;-50
2022/04/19 07:01:42;;;;;;;7.40;4.60;;;;;;;8.12;67.64;98270.88;5093678;28;20199;-53
2022/04/19 07:04:27;;;;;;;9.13;5.00;;;;;;;8.25;67.41;98279.16;5095344;28;20219;-49
2022/04/19 07:06:56;;;;;;;11.33;6.13;;;;;;;8.39;66.19;98277.88;5094302;28;20254;-49
2022/04/19 07:09:24;;;;;;;10.40;5.80;;;;;;;8.48;65.82;98280.56;5094248;28;20575;-48
2022/04/19 07:11:54;;;;;;;8.70;4.57;;;;;;;8.46;67.99;98282.50;5093892;28;20192;-49
2022/04/19 07:14:25;;;;;;;6.27;4.80;;;;;;;8.58;67.77;98278.72;5095455;28;20209;-49
2022/04/19 07:16:58;;;;;;;8.53;5.97;;;;;;;8.69;66.44;98283.72;5095538;28;20201;-51
2022/04/19 07:26:37;;;;;;;8.13;5.20;;;;;;;8.77;66.41;98290.81;5093959;28;20208;-49
2022/04/19 07:27:49;;;;;;;9.43;6.53;;;;;;;8.95;65.98;98282.19;5093884;28;20228;-49
2022/04/19 07:30:23;;;;;;;13.37;6.63;;;;;;;8.98;66.84;98284.50;5093135;28;20198;-49
2022/04/19 07:32:50;;;;;;;9.47;5.83;;;;;;;9.08;65.94;98285.22;5093818;28;20218;-48
2022/04/19 07:35:21;;;;;;;12.80;5.83;;;;;;;9.13;66.53;98276.97;5093902;28;20638;-49
2022/04/19 07:37:48;;;;;;;8.43;5.87;;;;;;;9.27;66.80;98276.44;5094817;28;20714;-50
2022/04/19 07:40:15;;;;;;;10.60;7.10;;;;;;;9.42;65.98;98278.50;5092829;28;20200;-50
2022/04/19 07:42:41;;;;;;;9.77;6.40;;;;;;;9.53;65.04;98280.88;5093660;28;20505;-49
2022/04/19 07:45:11;;;;;;;12.33;7.23;;;;;;;9.53;64.06;98286.06;5094609;28;20182;-52
2022/04/19 07:47:37;;;;;;;10.20;6.80;;;;;;;9.53;64.55;98283.47;5093646;28;20194;-50
2022/04/19 07:50:06;;;;;;;13.83;8.00;;;;;;;9.70;64.12;98279.16;5092572;28;20194;-49
2022/04/19 07:52:32;;;;;;;13.60;7.47;;;;;;;9.74;63.41;98277.06;5093082;28;20317;-50
2022/04/19 07:54:59;;;;;;;10.27;7.40;;;;;;;9.76;62.47;98275.13;5093307;28;20197;-50
2022/04/19 07:57:26;;;;;;;11.17;7.27;;;;;;;9.71;63.25;98270.38;5093309;28;20418;-49
2022/04/19 07:59:55;;;;;;;10.03;7.07;;;;;;;9.84;64.03;98269.16;5092398;28;20191;-48
2022/04/19 08:05:06;;;;;;;8.70;6.40;;;;;;;10.04;61.51;98267.94;5066604;28;20204;-56
2022/04/19 08:07:33;;;;;;;7.90;5.33;;;;;;;10.06;61.97;98266.97;5052504;28;20190;-55
2022/04/19 08:10:00;;;;;;;14.40;6.53;;;;;;;10.19;62.53;98270.78;5051842;28;20192;-56
2022/04/19 08:12:28;;;;;;;9.37;7.10;;;;;;;10.27;62.07;98271.78;5052600;28;20197;-56
2022/04/19 08:14:55;;;;;;;10.40;6.77;;;;;;;10.44;60.83;98272.66;5032632;28;20648;-55
2022/04/19 08:17:22;;;;;;;9.03;6.57;;;;;;;10.46;60.97;98276.78;5032378;28;20212;-56
2022/04/19 08:19:51;;;;;;;10.13;6.53;;;;;;;10.48;60.20;98272.22;5031702;28;21101;-56
2022/04/19 08:22:17;;;;;;;8.03;5.63;;;;;;;10.59;59.38;98270.28;5032448;28;20196;-56
2022/04/19 08:24:55;;;;;;;10.53;6.70;;;;;;;10.62;59.00;98269.94;5032606;28;20636;-55
2022/04/19 08:27:22;;;;;;;10.53;5.40;;;;;;;10.69;59.50;98264.91;5032399;28;20192;-56
2022/04/19 08:29:49;;;;;;;9.53;5.63;;;;;;;10.74;58.76;98268.66;5032678;28;20605;-55
2022/04/19 08:32:16;;;;;;;8.03;6.17;;;;;;;10.74;59.56;98270.47;5032255;28;20684;-55
2022/04/19 08:34:43;;;;;;;8.33;5.70;;;;;;;10.83;57.28;98266.06;5032234;28;20219;-55
2022/04/19 08:37:12;;;;;;;7.80;5.00;;;;;;;10.82;56.97;98267.03;5033364;28;20261;-55
2022/04/19 08:39:38;;;;;;;8.23;5.77;;;;;;;10.92;57.47;98271.16;5032667;28;20239;-55
2022/04/19 08:42:06;;;;;;;10.97;5.67;;;;;;;10.92;58.22;98268.53;5032047;28;20243;-55
2022/04/19 08:44:35;;;;;;;9.10;5.90;;;;;;;10.96;57.61;98265.59;5031956;28;20208;-55
2022/04/19 08:47:07;;;;;;;7.30;5.63;;;;;;;11.14;57.38;98268.84;5033321;28;20192;-55
2022/04/19 08:49:38;;;;;;;8.53;5.60;;;;;;;11.12;57.17;98270.84;5032906;28;20204;-55
2022/04/19 08:52:05;;;;;;;8.70;4.97;;;;;;;11.23;56.02;98269.69;5033168;28;20196;-55
2022/04/19 08:57:34;;;;;;;10.53;4.53;;;;;;;11.36;55.62;98267.38;5032399;28;20202;-55
2022/04/19 09:00:02;;;;;;;12.53;4.20;;;;;;;11.40;54.67;98256.59;5032273;28;20181;-55
2022/04/19 09:02:32;;;;;;;5.13;3.83;;;;;;;11.52;54.51;98260.50;5032959;28;20199;-55
2022/04/19 09:05:16;;;;;;;6.17;3.80;;;;;;;11.59;52.49;98253.66;5032785;28;20198;-55
2022/04/19 09:07:44;;;;;;;8.57;3.80;;;;;;;11.70;53.58;98262.09;5032858;28;20193;-55
2022/04/19 09:10:15;;;;;;;6.47;4.07;;;;;;;11.77;54.01;98249.97;5032061;28;20192;-56
2022/04/19 09:12:59;;;;;;;9.13;3.70;;;;;;;11.87;54.32;98253.22;5032805;28;20261;-55
2022/04/19 09:15:33;;;;;;;5.97;3.90;;;;;;;12.06;54.61;98262.53;5032726;28;20193;-55
2022/04/19 09:18:00;;;;;;;6.13;3.77;;;;;;;12.14;52.87;98256.44;5032652;28;20197;-55
2022/04/19 09:20:28;;;;;;;6.07;4.20;;;;;;;12.12;52.56;98255.78;5032047;28;20191;-55
2022/04/19 09:23:03;;;;;;;4.47;3.57;;;;;;;12.20;53.61;98250.53;5032493;28;20216;-55
2022/04/19 09:25:32;;;;;;;6.20;4.20;;;;;;;12.30;55.01;98252.91;5032583;28;20174;-55
2022/04/19 09:27:59;;;;;;;8.30;3.80;;;;;;;12.33;54.68;98241.31;5032484;28;20199;-56
2022/04/19 09:30:29;;;;;;;9.57;4.23;;;;;;;12.43;55.29;98241.91;5031603;28;20627;-56
2022/04/19 09:33:08;;;;;;;6.77;3.47;;;;;;;12.54;53.86;98245.94;5032367;28;20251;-56
2022/04/19 09:35:37;;;;;;;6.13;3.93;;;;;;;12.64;53.70;98237.88;5032370;28;20190;-56
2022/04/19 09:38:07;;;;;;;7.10;3.80;;;;;;;12.72;53.28;98235.16;5032275;28;20209;-55
2022/04/19 09:40:38;;;;;;;6.77;3.90;;;;;;;12.79;54.42;98230.06;5031397;28;20231;-56
2022/04/19 09:43:10;;;;;;;9.60;3.50;;;;;;;12.91;53.79;98223.41;5032244;28;20209;-56
2022/04/19 09:45:58;;;;;;;8.43;3.70;;;;;;;13.07;54.49;98222.47;5032226;28;20186;-56
2022/04/19 09:48:28;;;;;;;9.53;3.60;;;;;;;13.29;54.63;98215.53;5032208;28;20174;-55
2022/04/19 09:51:03;;;;;;;6.50;3.20;;;;;;;13.46;53.34;98220.66;5031221;28;20673;-55
2022/04/19 09:53:32;;;;;;;5.53;3.43;;;;;;;13.58;52.65;98211.34;5032676;28;20224;-55
2022/04/19 09:56:00;;;;;;;5.17;3.10;;;;;;;13.72;49.56;98203.69;5032029;28;20190;-55
2022/04/19 09:58:28;;;;;;;7.80;2.90;;;;;;;13.85;50.41;98200.41;5032039;28;20197;-55
2022/04/19 10:00:54;;;;;;;5.17;3.07;;;;;;;14.15;49.03;98197.75;5031627;28;20226;-55
2022/04/19 10:08:59;;;;;;;8.23;3.10;;;;;;;14.76;46.89;98196.59;5031949;28;20245;-55
2022/04/19 10:11:28;;;;;;;6.93;3.63;;;;;;;14.84;44.22;98201.69;5031067;28;20221;-55
2022/04/19 10:13:56;;;;;;;5.20;3.13;;;;;;;14.99;43.47;98200.78;5031640;28;20641;-55
2022/04/19 10:16:23;;;;;;;5.10;3.20;;;;;;;14.96;41.70;98194.13;5031860;28;20203;-55
2022/04/19 10:18:50;;;;;;;4.27;2.97;;;;;;;15.01;44.06;98191.72;5031600;28;20656;-55
2022/04/19 10:21:20;;;;;;;6.00;2.90;;;;;;;15.10;41.33;98191.59;5030852;28;20193;-56
2022/04/19 10:23:46;;;;;;;4.27;2.70;;;;;;;15.17;40.63;98181.94;5031631;28;20209;-56
2022/04/19 10:26:19;;;;;;;5.63;2.90;;;;;;;15.23;39.69;98177.72;5031703;28;20191;-56
2022/04/19 10:28:48;;;;;;;5.30;2.50;;;;;;;15.29;39.76;98175.16;5031704;28;20654;-56
2022/04/19 10:31:24;;;;;;;5.20;2.67;;;;;;;15.45;37.60;98179.28;5030830;28;20661;-56
2022/04/19 10:33:53;;;;;;;3.67;2.33;;;;;;;15.47;36.43;98174.66;5031537;28;20226;-56
2022/04/19 10:36:22;;;;;;;6.27;2.83;;;;;;;15.60;36.51;98167.84;5031603;28;20701;-56
2022/04/19 10:39:20;;;;;;;3.20;2.13;;;;;;;15.86;38.45;98168.97;5031437;28;20205;-55
2022/04/19 10:41:53;;;;;;;3.97;2.60;;;;;;;15.99;36.09;98174.28;5030810;28;20222;-55
2022/04/19 10:44:28;;;;;;;3.50;2.30;;;;;;;16.08;34.83;98173.09;5031388;28;20206;-55
2022/04/19 10:47:13;;;;;;;4.50;2.70;;;;;;;16.05;36.26;98160.34;5031450;28;20187;-55
2022/04/19 10:50:00;;;;;;;6.93;2.80;;;;;;;16.22;34.27;98166.06;5030609;28;20227;-55
2022/04/19 10:52:45;;;;;;;4.47;2.90;;;;;;;16.14;32.43;98162.78;5031144;28;20484;-55
2022/04/19 10:55:18;;;;;;;4.67;2.30;;;;;;;16.15;33.59;98156.53;5031420;28;20188;-56
2022/04/19 11:00:38;;;;;;;3.27;1.93;;;;;;;16.40;34.11;98155.97;5030730;28;20202;-56
2022/04/19 11:03:06;;;;;;;2.83;1.93;;;;;;;16.62;34.31;98153.97;5031237;28;20613;-56
2022/04/19 11:05:45;;;;;;;3.97;1.90;;;;;;;16.63;33.21;98155.59;5031353;28;20190;-55
2022/04/19 11:08:22;;;;;;;4.83;2.00;;;;;;;16.71;33.30;98152.75;5031244;28;20172;-55
2022/04/19 11:10:50;;;;;;;5.57;2.10;;;;;;;16.75;32.76;98145.28;5030481;28;20240;-55
2022/04/19 11:13:17;;;;;;;5.43;2.60;;;;;;;16.66;32.96;98142.00;5031231;28;20269;-56
2022/04/19 11:15:57;;;;;;;2.70;2.23;;;;;;;16.60;33.21;98137.53;5031220;28;20192;-55
2022/04/19 11:18:25;;;;;;;6.10;2.40;;;;;;;16.67;33.37;98143.63;5031030;28;20199;-55
2022/04/19 11:20:53;;;;;;;2.73;1.90;;;;;;;16.80;34.04;98135.72;5030805;28;20612;-56
2022/04/19 11:23:21;;;;;;;4.23;2.60;;;;;;;16.75;31.77;98142.63;5034861;28;20253;-56
2022/04/19 11:25:49;;;;;;;5.33;2.40;;;;;;;16.74;32.80;98128.63;5034794;28;20718;-56
2022/04/19 11:28:24;;;;;;;3.80;2.30;;;;;;;16.86;32.13;98130.66;5034777;28;20199;-55
2022/04/19 11:31:16;;;;;;;5.43;2.60;;;;;;;16.78;31.58;98127.22;5034326;28;20203;-56
2022/04/19 11:33:43;;;;;;;4.03;2.67;;;;;;;16.62;32.49;98117.91;5034288;28;20212;-55
2022/04/19 11:36:11;;;;;;;5.17;2.50;;;;;;;16.82;33.40;98122.38;5034626;28;20215;-56
2022/04/19 11:38:44;;;;;;;4.93;2.47;;;;;;;16.84;31.54;98128.25;5034555;28;20228;-55
2022/04/19 11:46:46;;;;;;;3.83;2.20;;;;;;;17.10;32.96;98126.59;5034464;28;20750;-55
2022/04/19 11:49:27;;;;;;;5.40;2.57;;;;;;;17.02;31.19;98127.63;5034412;28;20640;-55
2022/04/19 11:51:54;;;;;;;4.70;2.60;;;;;;;16.93;31.62;98119.13;5033567;28;20188;-56
2022/04/19 11:54:22;;;;;;;4.30;2.30;;;;;;;17.10;32.41;98129.25;5034245;28;20279;-56
2022/04/19 11:56:51;;;;;;;3.90;2.40;;;;;;;17.31;31.03;98125.56;5034362;28;20190;-55
2022/04/19 11:59:18;;;;;;;7.27;2.50;;;;;;;17.43;31.37;98130.19;5034219;28;20802;-55
2022/04/19 12:01:50;;;;;;;3.73;2.40;;;;;;;17.43;31.64;98115.16;5033468;28;20269;-55
2022/04/19 12:04:16;;;;;;;4.80;2.30;;;;;;;17.55;29.48;98116.16;5033830;28;20212;-55
2022/04/19 12:06:47;;;;;;;3.40;2.30;;;;;;;17.50;28.15;98117.78;5034188;28;20280;-56
2022/04/19 12:09:15;;;;;;;3.47;2.33;;;;;;;17.41;29.87;98106.66;5034263;28;20188;-56
2022/04/19 12:11:42;;;;;;;5.67;2.30;;;;;;;17.52;30.68;98116.56;5033573;28;20267;-55
2022/04/19 12:14:09;;;;;;;5.83;2.80;;;;;;;17.41;30.02;98114.56;5033968;28;20297;-56
2022/04/19 12:16:39;;;;;;;7.37;2.60;;;;;;;17.55;30.06;98117.97;5033908;28;20280;-55
2022/04/19 12:19:08;;;;;;;5.93;2.50;;;;;;;17.46;28.59;98106.84;5033721;28;20280;-55
2022/04/19 12:21:38;;;;;;;8.93;2.03;;;;;;;17.65;30.16;98113.06;5033087;28;20188;-55
2022/04/19 12:24:07;;;;;;;4.00;2.50;;;;;;;17.60;29.70;98112.06;5033998;28;20691;-56
2022/04/19 12:26:34;;;;;;;3.80;2.80;;;;;;;17.68;30.20;98104.72;5033694;28;20656;-56
2022/04/19 12:29:12;;;;;;;3.73;2.27;;;;;;;17.58;30.75;98106.19;5033635;28;20187;-56
2022/04/19 12:31:41;;;;;;;3.30;1.90;;;;;;;17.57;29.14;98097.44;5031911;28;20188;-56
2022/04/19 12:34:11;;;;;;;3.27;2.40;;;;;;;17.66;29.75;98105.97;5033563;28;20568;-55